Startpagina
METAR-TAF:

METAR-TAF

Vliegvelden :

Kasane Airport

Kasane, Botswana

breedte: 17-49S, lengte: 025-09E, hoogte: 968 m

Actueel weer

Dit bericht is 1 uur en het 54 minuten geleden gemaakt, om 18:00 UTC
Wind 4 kt uit het zuidzuidoosten
Temperatuur 22°C
Vochtigheid 94%
Druk 1017 hPa
Zicht 10 km of meer
Weinig wolken op 3000 ft, Cumulonimbus.
Verspreide wolken op 6500 ft

METAR: FBKE 181800Z 15004KT 9999 FEW030CB SCT065 22/21 Q1017

Tijdstip: 21:54 (19:54 UTC)

Verwachting

Dit bericht is 7 uur en het 54 minuten geleden gemaakt, om 12:00 UTC
Verwachting geldig van 18 om 15 UTC tot 18 om 24 UTC
Wind 7 kt uit het oosten
Zicht 10 km of meer
Verspreide wolken op 3000 ft
Weinig wolken op 3500 ft, Cumulonimbus.
Verspreide wolken op 7000 ft
Kans 30% :
Tijdelijke
van 18 om 15 UTC tot 18 om 24 UTC
onweer, regen

TAF: FBKE 181200Z 1815/1824 10007KT 9999 SCT030 FEW035CB SCT070 PROB30 TEMPO 1815/1824 TSRA

Waarnemingen en weersverwachtingen van meer dan 4000 vliegvelden (METAR en TAF).

De beschikbare stations zijn de gele en rode punten op de kaart.

Ga met uw muis naar het station om de naam te zien.

Klik dan om waarnemingen en weersverwachtingen te zien.

kaart wijzigen: klik op de groene knoppen met een zwart kruis om in te zoomen, op de groene knop met een streepje om uit te zoomen of op de groene pijlen voor aangrenzende kaarten.


METAR-TAF: